createdAt,value
2022-10-05T13:53:44.561Z,3.72
2022-10-05T13:57:19.635Z,3.85
2022-10-05T14:00:30.707Z,3.53
2022-10-05T14:04:16.961Z,3.63
2022-10-05T14:07:39.572Z,3.77
2022-10-05T14:10:56.216Z,4.13
2022-10-05T14:14:27.485Z,3.80
2022-10-05T14:17:44.987Z,3.40
2022-10-05T14:21:07.246Z,4.07
2022-10-05T14:24:44.023Z,3.90
2022-10-05T14:28:06.844Z,4.03
2022-10-05T14:36:01.511Z,3.75
2022-10-05T14:39:42.293Z,4.10
2022-10-05T14:43:31.440Z,4.20
2022-10-05T15:15:25.926Z,4.73
2022-10-05T15:18:57.183Z,4.10
2022-10-05T15:22:24.665Z,4.37
2022-10-05T15:25:56.713Z,3.92
2022-10-05T15:29:26.094Z,4.03
2022-10-05T15:32:56.282Z,3.42
2022-10-05T15:36:24.780Z,3.80
2022-10-05T15:39:59.718Z,3.80
2022-10-05T15:43:20.030Z,3.92
2022-10-05T15:46:49.581Z,3.80
2022-10-05T15:50:11.355Z,3.60
2022-10-05T15:53:52.791Z,3.80
2022-10-05T15:57:46.401Z,3.80
2022-10-05T16:01:10.744Z,4.13
2022-10-05T16:04:36.900Z,3.85
2022-10-05T16:08:13.172Z,3.38
2022-10-05T16:11:43.761Z,3.40
2022-10-05T16:15:26.395Z,3.60
2022-10-05T16:18:46.114Z,3.28
2022-10-05T16:22:24.481Z,3.67
2022-10-05T16:26:55.031Z,3.80
2022-10-05T16:29:57.692Z,4.43
2022-10-05T16:33:21.669Z,3.93
2022-10-05T16:37:10.056Z,4.03
2022-10-05T16:40:52.185Z,4.22
2022-10-05T16:44:25.379Z,3.97
2022-10-05T16:48:13.474Z,3.80
2022-10-05T16:51:32.763Z,4.10
2022-10-05T16:54:49.512Z,4.20
2022-10-05T16:58:29.381Z,3.60
2022-10-05T17:01:59.073Z,4.18
2022-10-05T17:05:22.699Z,3.63
2022-10-05T17:08:57.959Z,3.80
2022-10-05T17:12:40.020Z,3.88
2022-10-05T17:16:15.790Z,4.30
2022-10-05T17:19:33.035Z,4.50
2022-10-05T17:22:54.414Z,4.47
2022-10-05T17:26:54.859Z,4.70
2022-10-05T17:31:00.360Z,5.07
2022-10-05T17:35:18.376Z,4.68
2022-10-05T17:38:51.532Z,5.10
2022-10-05T17:42:26.667Z,4.80
2022-10-05T17:46:08.650Z,5.37
2022-10-05T17:50:12.386Z,5.63
2022-10-05T17:54:05.860Z,5.82
2022-10-05T17:57:25.522Z,5.50
2022-10-05T18:00:59.206Z,5.57
2022-10-05T18:04:19.973Z,5.50
2022-10-05T18:07:30.664Z,5.85
2022-10-05T18:11:09.373Z,5.72
2022-10-05T18:14:23.961Z,6.30
2022-10-05T18:17:57.398Z,5.57
2022-10-05T18:21:22.695Z,6.33
2022-10-05T18:24:53.156Z,6.05
2022-10-05T18:28:11.619Z,5.60
2022-10-05T18:31:39.363Z,6.15
2022-10-05T18:35:11.981Z,5.80
2022-10-05T18:39:01.620Z,6.20
2022-10-05T18:42:27.024Z,5.78
2022-10-05T18:45:46.108Z,6.20
2022-10-05T18:49:05.792Z,6.60
2022-10-05T18:52:57.746Z,6.40
2022-10-05T18:56:30.767Z,6.87
2022-10-05T18:59:53.626Z,7.13
2022-10-05T19:03:14.194Z,6.60
2022-10-05T19:07:02.191Z,7.50
2022-10-05T19:10:25.523Z,6.90
2022-10-05T19:14:06.113Z,6.70
2022-10-05T19:17:29.750Z,7.88
2022-10-05T19:21:17.356Z,7.35
2022-10-05T19:25:09.848Z,7.35
2022-10-05T19:28:44.635Z,7.23
2022-10-05T19:32:03.743Z,7.87
2022-10-05T19:35:27.351Z,7.80
2022-10-05T19:38:45.636Z,7.80
2022-10-05T19:42:25.414Z,7.93
2022-10-05T19:45:41.470Z,7.87
2022-10-05T19:48:57.289Z,7.87
2022-10-05T19:52:14.530Z,8.27
2022-10-05T19:55:37.457Z,8.10
2022-10-05T19:58:54.656Z,7.93
2022-10-05T20:02:15.437Z,8.43
2022-10-05T20:05:22.977Z,7.60
2022-10-05T20:08:31.897Z,8.20
2022-10-05T20:11:49.671Z,9.20
2022-10-05T20:15:25.747Z,9.38
2022-10-05T20:19:07.000Z,9.73
2022-10-05T20:22:35.056Z,8.90
2022-10-05T20:25:37.748Z,8.82
2022-10-05T20:28:40.830Z,10.20
2022-10-05T20:31:43.988Z,9.65
2022-10-05T20:34:47.999Z,9.90
2022-10-05T20:37:50.812Z,9.27
2022-10-05T20:40:53.878Z,10.25
2022-10-05T20:43:56.522Z,9.30
2022-10-05T20:47:01.381Z,9.73
2022-10-05T20:50:07.619Z,9.57
2022-10-05T20:53:12.115Z,9.80
2022-10-05T20:56:14.988Z,9.80
2022-10-05T20:59:18.797Z,9.73
2022-10-05T21:02:21.614Z,9.65
2022-10-05T21:05:24.407Z,9.20
2022-10-05T21:08:27.711Z,10.33
2022-10-05T21:11:30.680Z,10.48
2022-10-05T21:14:34.459Z,10.68
2022-10-05T21:17:39.327Z,9.73
2022-10-05T21:20:48.699Z,9.93
2022-10-05T21:23:52.001Z,10.00
2022-10-05T21:26:57.718Z,10.93
2022-10-05T21:30:00.852Z,10.27
2022-10-05T21:33:03.586Z,10.35
2022-10-05T21:36:06.263Z,10.33
2022-10-05T21:39:08.835Z,10.07
2022-10-05T21:42:11.540Z,10.15
2022-10-05T21:45:14.364Z,10.63
2022-10-05T21:48:19.370Z,9.80
2022-10-05T21:51:28.092Z,10.07
2022-10-05T21:54:32.823Z,10.10
2022-10-05T21:57:36.379Z,10.30
2022-10-05T22:00:39.165Z,10.82
2022-10-05T22:03:42.194Z,10.85
2022-10-05T22:06:44.993Z,12.37
2022-10-05T22:09:48.713Z,12.80
2022-10-05T22:12:51.585Z,12.98
2022-10-05T22:15:56.303Z,12.90
2022-10-05T22:19:05.279Z,13.57
2022-10-05T22:22:11.813Z,14.53
2022-10-05T22:25:14.808Z,13.63
2022-10-05T22:28:18.118Z,15.07
2022-10-05T22:31:21.170Z,13.93
2022-10-05T22:34:23.769Z,14.52
2022-10-05T22:37:26.514Z,15.43
2022-10-05T22:40:29.246Z,13.53
2022-10-05T22:43:31.910Z,13.20
2022-10-05T22:46:34.607Z,13.60
2022-10-05T22:49:37.246Z,13.32
2022-10-05T22:52:40.505Z,13.03
2022-10-05T22:55:43.482Z,12.33
2022-10-05T22:58:46.695Z,12.55
2022-10-05T23:01:49.531Z,12.48
2022-10-05T23:04:52.216Z,12.13
2022-10-05T23:07:54.873Z,13.10
2022-10-05T23:11:08.928Z,12.80
2022-10-05T23:14:11.880Z,12.43
2022-10-05T23:17:19.387Z,12.07
2022-10-05T23:20:24.733Z,12.73
2022-10-05T23:23:27.605Z,12.60
2022-10-05T23:26:31.307Z,12.00
2022-10-05T23:29:34.068Z,12.82
2022-10-05T23:32:44.567Z,12.88
2022-10-05T23:35:47.202Z,11.48
2022-10-05T23:38:50.642Z,11.60
2022-10-05T23:41:53.690Z,11.83
2022-10-05T23:44:56.270Z,11.48
2022-10-05T23:47:58.816Z,11.68
2022-10-05T23:51:01.769Z,11.57
2022-10-05T23:54:04.430Z,12.00
2022-10-05T23:57:07.226Z,12.40
